Oconto, NE (68860)

7:02 AM CST on December 19, 2014 (GMT -0600)
South of Town | Change Station
CLOSE
Current Station
Personal Weather Station
Location: Broken Bow, NE
Elevation: 2523 ft
Nearby Weather Stations

Elev 2523 ft 41.38 °N, 99.64 °W | Updated 3 seconds ago

Fog
Fog
23.0 °F
Feels Like 23 °F
N
3.0
Wind Variable Wind from SW
Gusts 11.0 mph

Today
High -- | Low -- °F
--% Chance of Precip.
Yesterday
High -- | Low -- °F
Precip. -- in
7:59 AM 5:12 PM
Waning Crescent, 8% visible
Pressure 30.17 in
Visibility 2.0 miles
Clouds Overcast 300 ft
Windchill 23 °F
Dew Point 22 °F
Humidity 95%
Rainfall 0.00 in
Snow Depth Not available.
UV 0 out of 12
Pollen .10 out of 12
Air Quality Not available.
Flu Activity Not available.
METAR KBBW 191253Z AUTO 22006KT 2SM BR OVC003 M04/M05 A3009 RMK AO2 SLP217 I1000 T10441050

More Conditions Fewer Conditions

Pressure 30.17 in
Visibility 2.0 miles
Clouds Overcast 300 ft
Windchill 23 °F
Dew Point 22 °F
Humidity 95%
Rainfall 0.00 in
Snow Depth Not available.
UV 0 out of 12
Pollen .10 out of 12
Air Quality Not available.
Flu Activity Not available.
METAR KBBW 191253Z AUTO 22006KT 2SM BR OVC003 M04/M05 A3009 RMK AO2 SLP217 I1000 T10441050

More Conditions Fewer Conditions

Nowcast | as of 5:48 am CST on December 19, 2014

A narrow corridor of locally dense fog will continue to be observed for areas near a line from Curtis...Brady...Brewster and Bassett. The fog will persist through daybreak...then gradually lift and end by 10 am CST.

×

10-Day Weather Forecast

Almanac

Astronomy

Dec. 19, 2014 Rise Set
Actual Time
Civil Twilight
Nautical Twilight
Astronomical Twilight
Moon
Length of Visible Light
Length of Day
Tomorrow will be .
, % of the Moon is Illuminated

Today's Extremes

State Highs State Lows

Community

WunderPhotos

Upload Photos

1,778,983 photos uploaded!

WunderBlogs® & News

Nearby

Air Quality

  Air Quality AQ Index Pollutant
Not available.

Snow Depth

Station Depth Elevation

Earthquake Activity

City Distance Mag. Time & Date
Minimum magnitude displayed is 2.5.

Coastal Water Temperatures

Place Temperature

Nearby Weather Stations